Time,TemperatureF,DewpointF,PressureIn,WindDirection,WindDirectionDegrees,WindSpeedMPH,WindSpeedGustMPH,Humidity,HourlyPrecipIn,Conditions,Clouds,dailyrainin,SoftwareType,DateUTC
2013-02-14 00:18:00,27.9,12.9,29.79,SSE,158,0.0,0.0,53,0.00,,,0.00,meteohub,2013-02-14 05:18:00,
2013-02-14 00:19:00,27.9,12.9,29.79,SSE,158,0.0,0.0,53,0.00,,,0.00,meteohub,2013-02-14 05:19:00,
2013-02-14 00:20:00,27.9,12.9,29.79,SSE,158,0.0,0.0,53,0.00,,,0.00,meteohub,2013-02-14 05:20:00,
2013-02-14 00:25:00,27.9,12.9,29.79,SSE,158,0.0,0.0,53,0.00,,,0.00,meteohub,2013-02-14 05:25:00,
2013-02-14 00:31:00,27.7,13.3,29.79,SSE,158,0.0,0.0,54,0.00,,,0.00,meteohub,2013-02-14 05:31:00,
2013-02-14 00:36:00,27.5,12.6,29.79,SSE,158,0.0,0.0,53,0.00,,,0.00,meteohub,2013-02-14 05:36:00,
2013-02-14 00:41:00,27.5,13.1,29.79,SSE,158,0.0,0.0,54,0.00,,,0.00,meteohub,2013-02-14 05:41:00,
2013-02-14 00:47:00,27.5,13.1,29.79,SSE,158,0.0,0.0,54,0.00,,,0.00,meteohub,2013-02-14 05:47:00,
2013-02-14 00:52:00,27.5,13.1,29.79,SSE,158,0.0,0.0,54,0.00,,,0.00,meteohub,2013-02-14 05:52:00,
2013-02-14 00:57:00,27.5,13.5,29.79,SSE,158,0.0,0.0,55,0.00,,,0.00,meteohub,2013-02-14 05:57:00,
2013-02-14 01:02:00,27.5,13.5,29.79,SSE,158,0.0,0.0,55,0.00,,,0.00,meteohub,2013-02-14 06:02:00,
2013-02-14 01:08:00,27.5,13.8,29.79,SSE,158,0.0,0.0,56,0.00,,,0.00,meteohub,2013-02-14 06:08:00,
2013-02-14 01:13:00,27.3,13.6,29.79,SSE,158,0.0,0.0,56,0.00,,,0.00,meteohub,2013-02-14 06:13:00,
2013-02-14 01:18:00,27.3,13.6,29.79,SSE,158,0.0,0.0,56,0.00,,,0.00,meteohub,2013-02-14 06:18:00,
2013-02-14 01:23:00,27.3,13.6,29.79,SSE,158,0.0,0.0,56,0.00,,,0.00,meteohub,2013-02-14 06:23:00,
2013-02-14 01:29:00,27.3,14.2,29.79,SSE,158,0.0,0.0,57,0.00,,,0.00,meteohub,2013-02-14 06:29:00,
2013-02-14 01:34:00,27.3,14.2,29.79,SSE,158,0.0,0.0,57,0.00,,,0.00,meteohub,2013-02-14 06:34:00,
2013-02-14 01:39:00,27.3,14.5,29.79,SSE,158,0.0,0.0,58,0.00,,,0.00,meteohub,2013-02-14 06:39:00,
2013-02-14 01:44:00,27.1,14.4,29.79,SSE,158,0.0,0.0,58,0.00,,,0.00,meteohub,2013-02-14 06:44:00,
2013-02-14 01:50:00,27.1,14.4,29.79,SSE,158,0.0,0.0,58,0.00,,,0.00,meteohub,2013-02-14 06:50:00,
2013-02-14 01:55:00,27.0,14.2,29.79,SSE,158,0.0,0.0,58,0.00,,,0.00,meteohub,2013-02-14 06:55:00,
2013-02-14 02:00:00,27.0,14.2,29.79,SSE,158,0.0,0.0,58,0.00,,,0.00,meteohub,2013-02-14 07:00:00,
2013-02-14 02:06:00,27.0,14.5,29.79,SSE,158,0.0,0.0,59,0.00,,,0.00,meteohub,2013-02-14 07:06:00,
2013-02-14 02:11:00,27.0,14.5,29.79,SSE,158,0.0,0.0,59,0.00,,,0.00,meteohub,2013-02-14 07:11:00,
2013-02-14 02:16:00,27.0,14.5,29.76,SSE,158,0.0,0.0,59,0.00,,,0.00,meteohub,2013-02-14 07:16:00,
2013-02-14 02:21:00,27.0,14.5,29.76,SSE,158,0.0,0.0,59,0.00,,,0.00,meteohub,2013-02-14 07:21:00,
2013-02-14 02:26:00,26.8,14.7,29.76,SSE,158,0.0,0.0,60,0.00,,,0.00,meteohub,2013-02-14 07:26:00,
2013-02-14 02:32:00,26.6,14.5,29.76,SSE,158,0.0,0.0,60,0.00,,,0.00,meteohub,2013-02-14 07:32:00,
2013-02-14 02:37:00,26.6,14.5,29.76,SSE,158,0.0,0.0,60,0.00,,,0.00,meteohub,2013-02-14 07:37:00,
2013-02-14 02:42:00,26.6,14.5,29.76,SSE,158,0.0,0.0,60,0.00,,,0.00,meteohub,2013-02-14 07:42:00,
2013-02-14 02:47:00,26.6,14.5,29.76,SSE,158,0.0,0.0,60,0.00,,,0.00,meteohub,2013-02-14 07:47:00,
2013-02-14 02:52:00,26.4,14.4,29.76,SSE,158,0.0,0.0,60,0.00,,,0.00,meteohub,2013-02-14 07:52:00,
2013-02-14 02:57:00,26.4,14.4,29.76,SSE,158,0.0,0.0,60,0.00,,,0.00,meteohub,2013-02-14 07:57:00,
2013-02-14 03:02:00,26.2,14.4,29.76,SSE,158,0.0,0.0,60,0.00,,,0.00,meteohub,2013-02-14 08:02:00,
2013-02-14 03:07:00,26.2,13.8,29.76,SSE,158,0.0,0.0,59,0.00,,,0.00,meteohub,2013-02-14 08:07:00,
2013-02-14 03:12:00,26.1,13.6,29.76,SSE,158,0.0,0.0,59,0.00,,,0.00,meteohub,2013-02-14 08:12:00,
2013-02-14 03:17:00,26.1,13.6,29.76,SSE,158,0.0,0.0,59,0.00,,,0.00,meteohub,2013-02-14 08:17:00,
2013-02-14 03:23:00,26.2,13.8,29.76,SSE,158,0.0,0.0,59,0.00,,,0.00,meteohub,2013-02-14 08:23:00,
2013-02-14 03:28:00,26.1,13.6,29.76,SSE,158,0.0,0.0,59,0.00,,,0.00,meteohub,2013-02-14 08:28:00,
2013-02-14 03:33:00,26.1,13.3,29.76,SSE,158,0.0,0.0,58,0.00,,,0.00,meteohub,2013-02-14 08:33:00,
2013-02-14 03:39:00,26.1,13.6,29.76,SSE,158,0.0,0.0,59,0.00,,,0.00,meteohub,2013-02-14 08:39:00,
2013-02-14 03:44:00,26.2,13.8,29.76,SSE,158,0.0,0.0,59,0.00,,,0.00,meteohub,2013-02-14 08:44:00,
2013-02-14 03:49:00,26.2,13.8,29.76,SSE,158,0.0,0.0,59,0.00,,,0.00,meteohub,2013-02-14 08:49:00,
2013-02-14 03:55:00,26.6,14.2,29.76,SSE,158,0.0,0.0,59,0.00,,,0.00,meteohub,2013-02-14 08:55:00,
2013-02-14 04:00:00,26.6,14.2,29.76,SSE,158,0.0,0.0,59,0.00,,,0.00,meteohub,2013-02-14 09:00:00,
2013-02-14 04:05:00,26.8,14.7,29.76,SSE,158,0.0,0.0,60,0.00,,,0.00,meteohub,2013-02-14 09:05:00,
2013-02-14 04:10:00,26.8,14.7,29.76,SSW,202,0.0,0.0,60,0.00,,,0.00,meteohub,2013-02-14 09:10:00,
2013-02-14 04:16:00,26.6,14.5,29.76,SSW,202,0.0,0.0,60,0.00,,,0.00,meteohub,2013-02-14 09:16:00,
2013-02-14 04:21:00,26.4,14.0,29.76,SSW,202,0.0,0.0,59,0.00,,,0.00,meteohub,2013-02-14 09:21:00,
2013-02-14 04:26:00,26.4,14.4,29.76,SSW,202,0.0,0.0,60,0.00,,,0.00,meteohub,2013-02-14 09:26:00,
2013-02-14 04:31:00,26.6,15.4,29.76,SSW,202,0.0,0.0,62,0.00,,,0.00,meteohub,2013-02-14 09:31:00,
2013-02-14 04:37:00,26.6,15.8,29.76,SSW,202,0.0,0.0,63,0.00,,,0.00,meteohub,2013-02-14 09:37:00,
2013-02-14 04:42:00,27.0,16.5,29.76,SSW,202,0.0,0.0,64,0.00,,,0.00,meteohub,2013-02-14 09:42:00,
2013-02-14 04:47:00,27.0,16.5,29.76,SE,135,0.0,0.0,64,0.00,,,0.00,meteohub,2013-02-14 09:47:00,
2013-02-14 04:52:00,26.8,16.3,29.76,SE,135,0.0,0.0,64,0.00,,,0.00,meteohub,2013-02-14 09:52:00,
2013-02-14 04:58:00,26.8,16.0,29.76,SE,135,0.0,0.0,63,0.00,,,0.00,meteohub,2013-02-14 09:58:00,
2013-02-14 05:03:00,26.8,15.6,29.76,SE,135,0.0,0.0,62,0.00,,,0.00,meteohub,2013-02-14 10:03:00,
2013-02-14 05:08:00,26.8,15.6,29.76,SE,135,0.0,0.0,62,0.00,,,0.00,meteohub,2013-02-14 10:08:00,
2013-02-14 05:14:00,27.0,16.0,29.76,SE,135,0.0,0.0,63,0.00,,,0.00,meteohub,2013-02-14 10:14:00,
2013-02-14 05:19:00,27.0,15.6,29.76,SE,135,0.0,0.0,62,0.00,,,0.00,meteohub,2013-02-14 10:19:00,
2013-02-14 05:24:00,27.0,15.6,29.76,SE,135,0.0,0.0,62,0.00,,,0.00,meteohub,2013-02-14 10:24:00,
2013-02-14 05:30:00,27.1,15.8,29.76,SSW,202,0.0,0.0,62,0.00,,,0.00,meteohub,2013-02-14 10:30:00,
2013-02-14 05:35:00,27.5,16.5,29.76,SSW,202,0.0,0.0,63,0.00,,,0.00,meteohub,2013-02-14 10:35:00,
2013-02-14 05:40:00,27.5,16.5,29.76,SSW,202,0.0,0.0,63,0.00,,,0.00,meteohub,2013-02-14 10:40:00,
2013-02-14 05:46:00,27.7,16.7,29.76,SSW,202,0.0,0.0,63,0.00,,,0.00,meteohub,2013-02-14 10:46:00,
2013-02-14 05:51:00,27.9,17.2,29.76,North,-999,-999.0,0.0,64,0.00,,,0.00,meteohub,2013-02-14 10:51:00,
2013-02-14 05:56:00,27.9,17.2,29.76,North,-999,-999.0,0.0,64,0.00,,,0.00,meteohub,2013-02-14 10:56:00,
2013-02-14 06:02:00,27.9,17.2,29.76,South,180,0.0,0.0,64,0.00,,,0.00,meteohub,2013-02-14 11:02:00,
2013-02-14 06:07:00,28.0,17.8,29.76,South,180,0.0,0.0,65,0.00,,,0.00,meteohub,2013-02-14 11:07:00,
2013-02-14 06:12:00,28.2,18.3,29.76,South,180,0.0,0.0,66,0.00,,,0.00,meteohub,2013-02-14 11:12:00,
2013-02-14 06:18:00,28.4,19.2,29.76,South,180,0.0,0.0,68,0.00,,,0.00,meteohub,2013-02-14 11:18:00,
2013-02-14 06:23:00,28.6,19.0,29.76,South,180,0.0,0.0,67,0.00,,,0.00,meteohub,2013-02-14 11:23:00,
2013-02-14 06:28:00,28.6,19.0,29.76,South,180,0.0,0.0,67,0.00,,,0.00,meteohub,2013-02-14 11:28:00,
2013-02-14 06:34:00,28.8,19.6,29.76,North,-999,-999.0,0.0,68,0.00,,,0.00,meteohub,2013-02-14 11:34:00,
2013-02-14 06:39:00,28.9,19.8,29.76,North,-999,-999.0,0.0,68,0.00,,,0.00,meteohub,2013-02-14 11:39:00,
2013-02-14 06:44:00,29.1,20.3,29.76,North,-999,-999.0,0.0,69,0.00,,,0.00,meteohub,2013-02-14 11:44:00,
2013-02-14 06:50:00,29.3,20.5,29.76,North,-999,-999.0,-999.0,69,0.00,,,0.00,meteohub,2013-02-14 11:50:00,
2013-02-14 06:55:00,29.3,20.5,29.76,North,-999,-999.0,-999.0,69,0.00,,,0.00,meteohub,2013-02-14 11:55:00,
2013-02-14 07:00:00,29.5,20.8,29.76,North,-999,-999.0,-999.0,70,0.00,,,0.00,meteohub,2013-02-14 12:00:00,
2013-02-14 07:06:00,29.5,20.8,29.76,SSW,202,0.0,-999.0,70,0.00,,,0.00,meteohub,2013-02-14 12:06:00,
2013-02-14 07:11:00,29.5,20.7,29.76,SSW,202,0.0,-999.0,69,0.00,,,0.00,meteohub,2013-02-14 12:11:00,
2013-02-14 07:17:00,29.7,21.4,29.76,SSW,202,0.0,-999.0,71,0.00,,,0.00,meteohub,2013-02-14 12:17:00,
2013-02-14 07:22:00,29.8,21.6,29.76,SSW,202,0.0,0.0,71,0.00,,,0.00,meteohub,2013-02-14 12:22:00,
2013-02-14 07:27:00,29.8,21.9,29.76,SSW,202,0.0,0.0,72,0.00,,,0.00,meteohub,2013-02-14 12:27:00,
2013-02-14 07:32:00,30.0,22.1,29.73,SSW,202,0.0,0.0,72,0.00,,,0.00,meteohub,2013-02-14 12:32:00,
2013-02-14 07:37:00,30.0,22.1,29.73,SSW,202,0.0,0.0,72,0.00,,,0.00,meteohub,2013-02-14 12:37:00,
2013-02-14 07:42:00,30.0,21.7,29.73,SSW,202,0.0,0.0,71,0.00,,,0.00,meteohub,2013-02-14 12:42:00,
2013-02-14 07:47:00,30.2,21.9,29.76,SSW,202,0.0,0.0,71,0.00,,,0.00,meteohub,2013-02-14 12:47:00,
2013-02-14 07:52:00,30.2,21.9,29.76,SSW,202,0.0,0.0,71,0.00,,,0.00,meteohub,2013-02-14 12:52:00,
2013-02-14 07:57:00,30.4,22.5,29.76,SSW,202,0.0,0.0,72,0.00,,,0.00,meteohub,2013-02-14 12:57:00,
2013-02-14 08:02:00,30.6,23.0,29.76,SSW,202,0.0,0.0,73,0.00,,,0.00,meteohub,2013-02-14 13:02:00,
2013-02-14 08:07:00,30.9,23.5,29.76,West,270,0.0,0.0,74,0.00,,,0.00,meteohub,2013-02-14 13:07:00,
2013-02-14 08:12:00,31.1,24.1,29.76,South,180,0.0,0.0,75,0.00,,,0.00,meteohub,2013-02-14 13:12:00,
2013-02-14 08:17:00,31.3,24.3,29.76,South,180,0.0,2.0,75,0.00,,,0.00,meteohub,2013-02-14 13:17:00,
2013-02-14 08:22:00,31.5,24.4,29.76,SSE,158,0.0,2.0,75,0.00,,,0.00,meteohub,2013-02-14 13:22:00,
2013-02-14 08:27:00,31.8,25.5,29.76,WSW,248,0.0,2.0,77,0.00,,,0.00,meteohub,2013-02-14 13:27:00,
2013-02-14 08:32:00,32.0,25.7,29.79,SSW,202,0.0,4.0,77,0.00,,,0.00,meteohub,2013-02-14 13:32:00,
2013-02-14 08:37:00,32.2,26.1,29.79,SSW,202,0.0,4.0,78,0.00,,,0.00,meteohub,2013-02-14 13:37:00,
2013-02-14 08:42:00,32.5,26.4,29.79,SSW,202,0.0,2.0,78,0.00,,,0.00,meteohub,2013-02-14 13:42:00,
2013-02-14 08:47:00,32.5,26.4,29.76,South,180,0.0,2.0,78,0.00,,,0.00,meteohub,2013-02-14 13:47:00,
2013-02-14 08:52:00,32.7,26.6,29.76,SSE,158,0.0,2.0,78,0.00,,,0.00,meteohub,2013-02-14 13:52:00,
2013-02-14 08:58:00,32.9,26.4,29.76,SSW,202,0.0,3.0,77,0.00,,,0.00,meteohub,2013-02-14 13:58:00,
2013-02-14 09:03:00,33.1,26.6,29.76,SSW,202,0.0,3.0,77,0.00,,,0.00,meteohub,2013-02-14 14:03:00,
2013-02-14 09:08:00,33.3,26.8,29.76,South,180,0.0,3.0,77,0.00,,,0.00,meteohub,2013-02-14 14:08:00,
2013-02-14 09:14:00,33.4,26.8,29.76,SSW,202,0.0,1.0,76,0.00,,,0.00,meteohub,2013-02-14 14:14:00,
2013-02-14 09:19:00,33.6,27.0,29.76,SSW,202,0.0,1.0,76,0.00,,,0.00,meteohub,2013-02-14 14:19:00,
2013-02-14 09:24:00,33.8,27.1,29.76,SSE,158,0.0,1.0,76,0.00,,,0.00,meteohub,2013-02-14 14:24:00,
2013-02-14 09:29:00,34.2,27.1,29.76,SSW,202,0.0,2.0,75,0.00,,,0.00,meteohub,2013-02-14 14:29:00,
2013-02-14 09:35:00,34.3,27.3,29.76,South,180,0.0,2.0,75,0.00,,,0.00,meteohub,2013-02-14 14:35:00,
2013-02-14 09:40:00,34.3,26.2,29.76,SSW,202,0.0,2.0,72,0.00,,,0.00,meteohub,2013-02-14 14:40:00,
2013-02-14 09:45:00,34.5,25.7,29.76,WSW,248,0.0,2.0,70,0.00,,,0.00,meteohub,2013-02-14 14:45:00,
2013-02-14 09:51:00,34.5,23.7,29.76,SSE,158,3.0,3.0,64,0.00,,,0.00,meteohub,2013-02-14 14:51:00,
2013-02-14 09:56:00,34.7,21.9,29.76,SSW,202,0.0,2.0,59,0.00,,,0.00,meteohub,2013-02-14 14:56:00,
2013-02-14 10:01:00,34.9,22.1,29.73,SSW,202,0.0,4.0,59,0.00,,,0.00,meteohub,2013-02-14 15:01:00,
2013-02-14 10:06:00,34.9,21.2,29.73,South,180,2.0,4.0,57,0.00,,,0.00,meteohub,2013-02-14 15:06:00,
2013-02-14 10:12:00,35.1,21.4,29.73,South,180,2.0,4.0,57,0.00,,,0.00,meteohub,2013-02-14 15:12:00,
2013-02-14 10:17:00,35.1,21.4,29.73,South,180,3.0,3.0,57,0.00,,,0.00,meteohub,2013-02-14 15:17:00,
2013-02-14 10:22:00,35.1,21.0,29.73,SSW,202,4.0,4.0,56,0.00,,,0.00,meteohub,2013-02-14 15:22:00,
2013-02-14 10:27:00,35.1,21.4,29.73,SSE,158,2.0,2.0,57,0.00,,,0.00,meteohub,2013-02-14 15:27:00,
2013-02-14 10:32:00,35.1,21.4,29.73,SSE,158,0.0,4.0,57,0.00,,,0.00,meteohub,2013-02-14 15:32:00,
2013-02-14 10:37:00,35.1,21.4,29.73,SSE,158,1.0,4.0,57,0.00,,,0.00,meteohub,2013-02-14 15:37:00,
2013-02-14 10:42:00,35.2,21.9,29.73,SSE,158,0.0,3.0,58,0.00,,,0.00,meteohub,2013-02-14 15:42:00,
2013-02-14 10:47:00,35.2,21.9,29.73,SSE,158,0.0,3.0,58,0.00,,,0.00,meteohub,2013-02-14 15:47:00,
2013-02-14 10:52:00,35.4,22.6,29.73,SSW,202,4.0,4.0,59,0.00,,,0.00,meteohub,2013-02-14 15:52:00,
2013-02-14 10:57:00,35.6,22.6,29.73,SSE,158,2.0,4.0,59,0.00,,,0.00,meteohub,2013-02-14 15:57:00,
2013-02-14 11:02:00,35.8,22.8,29.73,SSE,158,2.0,4.0,59,0.00,,,0.00,meteohub,2013-02-14 16:02:00,
2013-02-14 11:07:00,35.8,22.8,29.73,SSE,158,3.0,4.0,59,0.00,,,0.00,meteohub,2013-02-14 16:07:00,
2013-02-14 11:12:00,36.1,23.2,29.73,SSW,202,5.0,5.0,59,0.00,,,0.00,meteohub,2013-02-14 16:12:00,
2013-02-14 11:17:00,36.3,23.0,29.73,SSW,202,5.0,5.0,58,0.00,,,0.00,meteohub,2013-02-14 16:17:00,
2013-02-14 11:22:00,36.7,22.5,29.73,SE,135,3.0,5.0,56,0.00,,,0.00,meteohub,2013-02-14 16:22:00,
2013-02-14 11:27:00,36.9,22.3,29.73,East,90,0.0,5.0,55,0.00,,,0.00,meteohub,2013-02-14 16:27:00,
2013-02-14 11:32:00,37.2,21.7,29.73,WSW,248,2.0,6.0,53,0.00,,,0.00,meteohub,2013-02-14 16:32:00,
2013-02-14 11:38:00,37.4,21.0,29.73,ESE,112,3.0,6.0,51,0.00,,,0.00,meteohub,2013-02-14 16:38:00,
2013-02-14 11:43:00,37.6,20.7,29.73,SSW,202,2.0,3.0,50,0.00,,,0.00,meteohub,2013-02-14 16:43:00,
2013-02-14 11:48:00,37.9,21.0,29.70,SE,135,5.0,5.0,50,0.00,,,0.00,meteohub,2013-02-14 16:48:00,
2013-02-14 11:54:00,38.1,21.2,29.70,SSE,158,3.0,3.0,50,0.00,,,0.00,meteohub,2013-02-14 16:54:00,
2013-02-14 11:59:00,38.7,21.7,29.70,West,270,3.0,5.0,50,0.00,,,0.00,meteohub,2013-02-14 16:59:00,
2013-02-14 12:04:00,38.8,20.8,29.70,SSE,158,3.0,5.0,48,0.00,,,0.00,meteohub,2013-02-14 17:04:00,
2013-02-14 12:18:00,38.5,19.0,29.70,SE,135,2.0,3.0,45,0.00,,,0.00,meteohub,2013-02-14 17:18:00,
2013-02-14 12:24:00,37.9,19.0,29.70,SW,225,2.0,3.0,46,0.00,,,0.00,meteohub,2013-02-14 17:24:00,
2013-02-14 12:29:00,37.6,19.8,29.70,SSW,202,1.0,3.0,48,0.00,,,0.00,meteohub,2013-02-14 17:29:00,
2013-02-14 12:35:00,37.6,20.7,29.70,SW,225,4.0,4.0,50,0.00,,,0.00,meteohub,2013-02-14 17:35:00,
2013-02-14 12:40:00,37.6,20.7,29.70,South,180,2.0,3.0,50,0.00,,,0.00,meteohub,2013-02-14 17:40:00,
2013-02-14 12:45:00,37.6,21.2,29.70,SSE,158,3.0,3.0,51,0.00,,,0.00,meteohub,2013-02-14 17:45:00,
2013-02-14 12:51:00,37.6,21.2,29.70,SSE,158,5.0,5.0,51,0.00,,,0.00,meteohub,2013-02-14 17:51:00,
2013-02-14 12:56:00,37.6,21.2,29.70,WSW,248,2.0,4.0,51,0.00,,,0.00,meteohub,2013-02-14 17:56:00,
2013-02-14 13:01:00,37.6,21.2,29.68,WSW,248,2.0,4.0,51,0.00,,,0.00,meteohub,2013-02-14 18:01:00,
2013-02-14 13:07:00,37.6,21.2,29.68,SE,135,2.0,5.0,51,0.00,,,0.00,meteohub,2013-02-14 18:07:00,
2013-02-14 13:12:00,37.6,21.6,29.68,SSE,158,1.0,5.0,52,0.00,,,0.00,meteohub,2013-02-14 18:12:00,
2013-02-14 13:17:00,37.6,21.6,29.70,WSW,248,2.0,5.0,52,0.00,,,0.00,meteohub,2013-02-14 18:17:00,
2013-02-14 13:22:00,37.6,21.6,29.70,WSW,248,3.0,3.0,52,0.00,,,0.00,meteohub,2013-02-14 18:22:00,
2013-02-14 13:27:00,37.6,21.6,29.70,SW,225,2.0,3.0,52,0.00,,,0.00,meteohub,2013-02-14 18:27:00,
2013-02-14 13:33:00,37.6,21.6,29.70,SSE,158,2.0,3.0,52,0.00,,,0.00,meteohub,2013-02-14 18:33:00,
2013-02-14 13:38:00,37.8,21.7,29.70,SSE,158,2.0,3.0,52,0.00,,,0.00,meteohub,2013-02-14 18:38:00,
2013-02-14 13:43:00,37.8,21.7,29.70,SSE,158,0.0,3.0,52,0.00,,,0.00,meteohub,2013-02-14 18:43:00,
2013-02-14 13:48:00,37.8,21.7,29.68,SE,135,6.0,6.0,52,0.00,,,0.00,meteohub,2013-02-14 18:48:00,
2013-02-14 13:54:00,37.9,21.6,29.68,SE,135,4.0,6.0,51,0.00,,,0.00,meteohub,2013-02-14 18:54:00,
2013-02-14 13:59:00,37.9,21.6,29.68,SSE,158,6.0,6.0,51,0.00,,,0.00,meteohub,2013-02-14 18:59:00,
2013-02-14 14:04:00,38.1,21.2,29.68,WSW,248,2.0,6.0,50,0.00,,,0.00,meteohub,2013-02-14 19:04:00,
2013-02-14 14:10:00,38.1,21.2,29.68,SSE,158,4.0,6.0,50,0.00,,,0.00,meteohub,2013-02-14 19:10:00,
2013-02-14 14:15:00,38.1,21.2,29.68,SSE,158,4.0,6.0,50,0.00,,,0.00,meteohub,2013-02-14 19:15:00,
2013-02-14 14:20:00,38.3,21.4,29.68,SW,225,2.0,4.0,50,0.00,,,0.00,meteohub,2013-02-14 19:20:00,
2013-02-14 14:25:00,38.3,21.4,29.68,ESE,112,1.0,4.0,50,0.00,,,0.00,meteohub,2013-02-14 19:25:00,
2013-02-14 14:31:00,38.3,21.4,29.68,NNE,22,2.0,4.0,50,0.00,,,0.00,meteohub,2013-02-14 19:31:00,
2013-02-14 14:36:00,38.3,21.4,29.68,NNE,22,2.0,2.0,50,0.00,,,0.00,meteohub,2013-02-14 19:36:00,
2013-02-14 14:41:00,38.5,21.6,29.68,WSW,248,1.0,2.0,50,0.00,,,0.00,meteohub,2013-02-14 19:41:00,
2013-02-14 14:47:00,38.5,21.6,29.65,SSE,158,2.0,3.0,50,0.00,,,0.00,meteohub,2013-02-14 19:47:00,
2013-02-14 14:52:00,38.5,21.6,29.65,SSE,158,2.0,3.0,50,0.00,,,0.00,meteohub,2013-02-14 19:52:00,
2013-02-14 14:57:00,38.5,21.6,29.65,SSE,158,2.0,3.0,50,0.00,,,0.00,meteohub,2013-02-14 19:57:00,
2013-02-14 15:02:00,38.5,21.6,29.68,SSE,158,2.0,3.0,50,0.00,,,0.00,meteohub,2013-02-14 20:02:00,
2013-02-14 15:07:00,38.5,21.6,29.68,SW,225,3.0,3.0,50,0.00,,,0.00,meteohub,2013-02-14 20:07:00,
2013-02-14 15:12:00,38.5,21.6,29.68,SW,225,2.0,2.0,50,0.00,,,0.00,meteohub,2013-02-14 20:12:00,
2013-02-14 15:17:00,38.5,21.9,29.68,WSW,248,4.0,4.0,51,0.00,,,0.00,meteohub,2013-02-14 20:17:00,
2013-02-14 15:22:00,38.5,21.9,29.68,SSE,158,8.0,8.0,51,0.00,,,0.00,meteohub,2013-02-14 20:22:00,
2013-02-14 15:27:00,38.5,21.9,29.68,WNW,292,1.0,6.0,51,0.00,,,0.00,meteohub,2013-02-14 20:27:00,
2013-02-14 15:32:00,38.5,21.6,29.65,WSW,248,2.0,6.0,50,0.00,,,0.00,meteohub,2013-02-14 20:32:00,
2013-02-14 15:37:00,38.5,21.6,29.65,SW,225,2.0,8.0,50,0.00,,,0.00,meteohub,2013-02-14 20:37:00,
2013-02-14 15:42:00,38.5,21.9,29.65,West,270,2.0,8.0,51,0.00,,,0.00,meteohub,2013-02-14 20:42:00,
2013-02-14 15:48:00,38.5,21.6,29.68,WSW,248,3.0,4.0,50,0.00,,,0.00,meteohub,2013-02-14 20:48:00,
2013-02-14 15:53:00,38.5,21.9,29.68,West,270,2.0,4.0,51,0.00,,,0.00,meteohub,2013-02-14 20:53:00,
2013-02-14 15:58:00,38.5,21.9,29.68,West,270,0.0,4.0,51,0.00,,,0.00,meteohub,2013-02-14 20:58:00,
2013-02-14 16:04:00,38.5,22.5,29.68,SSE,158,3.0,3.0,52,0.00,,,0.00,meteohub,2013-02-14 21:04:00,
2013-02-14 16:09:00,38.5,22.5,29.68,SE,135,4.0,4.0,52,0.00,,,0.00,meteohub,2013-02-14 21:09:00,
2013-02-14 16:14:00,38.5,22.5,29.68,SW,225,2.0,3.0,52,0.00,,,0.00,meteohub,2013-02-14 21:14:00,
2013-02-14 16:19:00,38.5,21.9,29.68,WSW,248,2.0,4.0,51,0.00,,,0.00,meteohub,2013-02-14 21:19:00,
2013-02-14 16:25:00,38.7,21.7,29.68,WSW,248,2.0,4.0,50,0.00,,,0.00,meteohub,2013-02-14 21:25:00,
2013-02-14 16:30:00,38.7,21.2,29.68,West,270,4.0,4.0,49,0.00,,,0.00,meteohub,2013-02-14 21:30:00,
2013-02-14 16:39:00,38.8,20.3,29.68,West,270,2.0,4.0,47,0.00,,,0.00,meteohub,2013-02-14 21:39:00,
2013-02-14 16:44:00,38.8,21.4,29.68,West,270,3.0,4.0,49,0.00,,,0.00,meteohub,2013-02-14 21:44:00,
2013-02-14 16:50:00,38.7,21.2,29.68,West,270,3.0,4.0,49,0.00,,,0.00,meteohub,2013-02-14 21:50:00,
2013-02-14 16:55:00,38.7,20.7,29.68,WNW,292,8.0,8.0,48,0.00,,,0.00,meteohub,2013-02-14 21:55:00,
2013-02-14 17:00:00,38.5,20.5,29.70,SW,225,8.0,8.0,48,0.00,,,0.00,meteohub,2013-02-14 22:00:00,
2013-02-14 17:06:00,38.1,21.2,29.70,SW,225,8.0,8.0,50,0.00,,,0.00,meteohub,2013-02-14 22:06:00,
2013-02-14 17:11:00,37.8,20.3,29.70,SW,225,8.0,8.0,49,0.00,,,0.00,meteohub,2013-02-14 22:11:00,
2013-02-14 17:16:00,37.6,19.8,29.70,SW,225,8.0,8.0,48,0.00,,,0.00,meteohub,2013-02-14 22:16:00,
2013-02-14 17:21:00,37.4,19.0,29.70,North,-999,-999.0,8.0,47,0.00,,,0.00,meteohub,2013-02-14 22:21:00,
2013-02-14 17:27:00,37.6,18.7,29.70,West,270,6.0,8.0,46,0.00,,,0.00,meteohub,2013-02-14 22:27:00,
2013-02-14 17:32:00,37.8,16.7,29.70,West,270,6.0,8.0,42,0.00,,,0.00,meteohub,2013-02-14 22:32:00,
2013-02-14 17:37:00,37.6,16.7,29.70,West,270,6.0,8.0,42,0.00,,,0.00,meteohub,2013-02-14 22:37:00,
2013-02-14 17:42:00,37.4,16.5,29.70,West,270,6.0,6.0,42,0.00,,,0.00,meteohub,2013-02-14 22:42:00,
2013-02-14 17:47:00,37.4,16.0,29.73,North,-999,-999.0,6.0,41,0.00,,,0.00,meteohub,2013-02-14 22:47:00,
2013-02-14 17:52:00,37.4,16.0,29.73,North,-999,-999.0,6.0,41,0.00,,,0.00,meteohub,2013-02-14 22:52:00,
2013-02-14 17:57:00,37.4,16.0,29.73,North,-999,-999.0,-999.0,41,0.00,,,0.00,meteohub,2013-02-14 22:57:00,
2013-02-14 18:02:00,37.4,16.0,29.73,WSW,248,5.0,-999.0,41,0.00,,,0.00,meteohub,2013-02-14 23:02:00,
2013-02-14 18:07:00,37.4,15.3,29.73,WSW,248,5.0,-999.0,40,0.00,,,0.00,meteohub,2013-02-14 23:07:00,
2013-02-14 18:12:00,37.4,15.3,29.73,West,270,11.0,-999.0,40,0.00,,,0.00,meteohub,2013-02-14 23:12:00,
2013-02-14 18:17:00,37.6,15.4,29.73,WNW,292,13.0,13.0,40,0.00,,,0.00,meteohub,2013-02-14 23:17:00,
2013-02-14 18:22:00,37.6,15.4,29.73,WNW,292,13.0,13.0,40,0.00,,,0.00,meteohub,2013-02-14 23:22:00,
2013-02-14 18:27:00,37.8,15.1,29.73,WNW,292,13.0,13.0,39,0.00,,,0.00,meteohub,2013-02-14 23:27:00,
2013-02-14 18:33:00,37.6,15.4,29.73,West,270,10.0,13.0,40,0.00,,,0.00,meteohub,2013-02-14 23:33:00,
2013-02-14 18:38:00,37.8,15.6,29.73,WSW,248,7.0,13.0,40,0.00,,,0.00,meteohub,2013-02-14 23:38:00,
2013-02-14 18:43:00,37.8,15.6,29.73,WSW,248,7.0,13.0,40,0.00,,,0.00,meteohub,2013-02-14 23:43:00,
2013-02-14 18:59:00,37.8,15.1,29.73,WSW,248,11.0,15.0,39,0.00,,,0.00,meteohub,2013-02-14 23:59:00,
2013-02-14 19:04:00,37.6,14.9,29.73,West,270,10.0,13.0,39,0.00,,,0.00,meteohub,2013-02-15 00:04:00,
2013-02-14 19:09:00,37.6,14.9,29.73,South,180,8.0,13.0,39,0.00,,,0.00,meteohub,2013-02-15 00:09:00,
2013-02-14 19:15:00,37.8,15.1,29.73,WNW,292,11.0,11.0,39,0.00,,,0.00,meteohub,2013-02-15 00:15:00,
2013-02-14 19:20:00,37.8,15.1,29.76,WSW,248,10.0,11.0,39,0.00,,,0.00,meteohub,2013-02-15 00:20:00,
2013-02-14 19:25:00,37.8,15.1,29.76,West,270,15.0,15.0,39,0.00,,,0.00,meteohub,2013-02-15 00:25:00,
2013-02-14 19:30:00,37.8,15.1,29.76,West,270,15.0,15.0,39,0.00,,,0.00,meteohub,2013-02-15 00:30:00,
2013-02-14 19:36:00,37.4,15.3,29.76,West,270,15.0,15.0,40,0.00,,,0.00,meteohub,2013-02-15 00:36:00,
2013-02-14 19:41:00,37.4,15.3,29.76,West,270,18.0,18.0,40,0.00,,,0.00,meteohub,2013-02-15 00:41:00,
2013-02-14 19:46:00,37.0,15.6,29.76,West,270,18.0,18.0,41,0.00,,,0.00,meteohub,2013-02-15 00:46:00,
2013-02-14 19:51:00,37.0,15.6,29.76,WNW,292,15.0,15.0,41,0.00,,,0.00,meteohub,2013-02-15 00:51:00,
2013-02-14 19:59:00,36.9,16.0,29.76,WSW,248,15.0,22.0,42,0.00,,,0.00,meteohub,2013-02-15 00:59:00,
2013-02-14 20:05:00,36.7,16.3,29.76,WNW,292,10.0,22.0,43,0.00,,,0.00,meteohub,2013-02-15 01:05:00,
2013-02-14 20:10:00,36.7,16.3,29.76,WNW,292,11.0,18.0,43,0.00,,,0.00,meteohub,2013-02-15 01:10:00,
2013-02-14 20:15:00,36.5,16.2,29.76,West,270,13.0,18.0,43,0.00,,,0.00,meteohub,2013-02-15 01:15:00,
2013-02-14 20:20:00,36.5,15.6,29.76,WNW,292,13.0,18.0,42,0.00,,,0.00,meteohub,2013-02-15 01:20:00,
2013-02-14 20:26:00,36.3,16.0,29.76,WNW,292,11.0,19.0,43,0.00,,,0.00,meteohub,2013-02-15 01:26:00,
2013-02-14 20:39:00,35.6,15.4,29.79,West,270,17.0,20.0,43,0.00,,,0.00,meteohub,2013-02-15 01:39:00,
2013-02-14 20:49:00,35.2,16.2,29.79,WNW,292,15.0,20.0,45,0.00,,,0.00,meteohub,2013-02-15 01:49:00,
2013-02-14 20:59:00,35.1,15.4,29.79,WNW,292,9.0,24.0,44,0.00,,,0.00,meteohub,2013-02-15 01:59:00,
2013-02-14 21:19:00,35.1,14.9,29.79,WNW,292,14.0,20.0,43,0.00,,,0.00,meteohub,2013-02-15 02:19:00,
2013-02-14 21:24:00,35.1,14.9,29.79,WSW,248,14.0,20.0,43,0.00,,,0.00,meteohub,2013-02-15 02:24:00,
2013-02-14 21:30:00,35.1,14.9,29.79,WNW,292,15.0,20.0,43,0.00,,,0.00,meteohub,2013-02-15 02:30:00,
2013-02-14 21:35:00,35.1,14.9,29.79,West,270,14.0,20.0,43,0.00,,,0.00,meteohub,2013-02-15 02:35:00,
2013-02-14 21:40:00,35.1,14.9,29.79,WNW,292,19.0,19.0,43,0.00,,,0.00,meteohub,2013-02-15 02:40:00,
2013-02-14 21:46:00,35.1,14.9,29.79,WNW,292,16.0,19.0,43,0.00,,,0.00,meteohub,2013-02-15 02:46:00,
2013-02-14 21:51:00,35.1,14.9,29.79,WNW,292,11.0,19.0,43,0.00,,,0.00,meteohub,2013-02-15 02:51:00,
2013-02-14 21:56:00,34.9,14.7,29.79,WNW,292,17.0,19.0,43,0.00,,,0.00,meteohub,2013-02-15 02:56:00,
2013-02-14 22:01:00,34.9,14.7,29.82,WNW,292,14.0,19.0,43,0.00,,,0.00,meteohub,2013-02-15 03:01:00,
2013-02-14 22:06:00,34.9,14.7,29.82,WNW,292,17.0,19.0,43,0.00,,,0.00,meteohub,2013-02-15 03:06:00,
2013-02-14 22:11:00,34.9,14.7,29.82,West,270,12.0,18.0,43,0.00,,,0.00,meteohub,2013-02-15 03:11:00,
2013-02-14 22:17:00,34.9,14.7,29.82,WNW,292,15.0,17.0,43,0.00,,,0.00,meteohub,2013-02-15 03:17:00,
2013-02-14 22:22:00,34.9,14.2,29.82,WNW,292,13.0,17.0,42,0.00,,,0.00,meteohub,2013-02-15 03:22:00,
2013-02-14 22:27:00,34.9,14.2,29.82,WNW,292,13.0,20.0,42,0.00,,,0.00,meteohub,2013-02-15 03:27:00,
2013-02-14 22:39:00,34.9,14.2,29.82,WNW,292,13.0,13.0,42,0.00,,,0.00,meteohub,2013-02-15 03:39:00,
2013-02-14 22:44:00,34.9,14.7,29.82,WNW,292,14.0,14.0,43,0.00,,,0.00,meteohub,2013-02-15 03:44:00,
2013-02-14 22:49:00,34.7,14.0,29.82,WNW,292,15.0,15.0,42,0.00,,,0.00,meteohub,2013-02-15 03:49:00,
2013-02-14 22:54:00,34.7,14.0,29.82,WNW,292,20.0,20.0,42,0.00,,,0.00,meteohub,2013-02-15 03:54:00,
2013-02-14 23:00:00,34.5,13.3,29.82,WNW,292,20.0,20.0,41,0.00,,,0.00,meteohub,2013-02-15 04:00:00,
2013-02-14 23:05:00,34.5,12.7,29.82,WNW,292,20.0,20.0,40,0.00,,,0.00,meteohub,2013-02-15 04:05:00,
2013-02-14 23:10:00,34.5,13.3,29.82,North,-999,-999.0,20.0,41,0.00,,,0.00,meteohub,2013-02-15 04:10:00,
2013-02-14 23:15:00,34.5,13.8,29.82,WNW,292,11.0,20.0,42,0.00,,,0.00,meteohub,2013-02-15 04:15:00,
2013-02-14 23:21:00,34.5,13.3,29.82,WNW,292,17.0,20.0,41,0.00,,,0.00,meteohub,2013-02-15 04:21:00,
2013-02-14 23:26:00,34.3,13.1,29.82,NNW,338,10.0,18.0,41,0.00,,,0.00,meteohub,2013-02-15 04:26:00,
2013-02-14 23:31:00,34.2,13.5,29.82,NNW,338,14.0,18.0,42,0.00,,,0.00,meteohub,2013-02-15 04:31:00,
2013-02-14 23:36:00,34.0,13.3,29.82,NW,315,17.0,18.0,42,0.00,,,0.00,meteohub,2013-02-15 04:36:00,
2013-02-14 23:42:00,34.0,13.8,29.82,NW,315,10.0,17.0,43,0.00,,,0.00,meteohub,2013-02-15 04:42:00,
2013-02-14 23:47:00,34.0,13.8,29.85,WNW,292,15.0,17.0,43,0.00,,,0.00,meteohub,2013-02-15 04:47:00,
2013-02-14 23:59:00,33.8,14.2,29.85,WNW,292,15.0,17.0,44,0.00,,,0.00,meteohub,2013-02-15 04:59:00,